This is the latest recevied weather packets stored in our database for station/object IZ5MMH-3. If no packets are shown the sender has not sent any weather packets the latest 1 day(s).
| Time | Temp. | Humidity | Pressure | Rain* | Wind** | Luminosity | Snow |
|---|---|---|---|---|---|---|---|
| 1778077941 | 23.33° C | 69% | 1011.6 hPa | - | - | - | - |
| 1778074341 | 22.78° C | 73% | 1011.5 hPa | - | - | - | - |
| 1778073141 | 22.78° C | 74% | 1011.6 hPa | - | - | - | - |
| 1778072541 | 23.33° C | 73% | 1011.9 hPa | - | - | - | - |
| 1778071941 | 22.78° C | 73% | 1011.9 hPa | - | - | - | - |
| 1778068941 | 22.78° C | 75% | 1012.1 hPa | - | - | - | - |
| 1778067741 | 22.78° C | 76% | 1012 hPa | - | - | - | - |
| 1778065341 | 21.67° C | 83% | 1012 hPa | - | - | - | - |
| 1778062941 | 20° C | 91% | 1012.2 hPa | - | - | - | - |
| 1778061140 | 20° C | 88% | 1012.3 hPa | - | - | - | - |
| 1778060540 | 19.44° C | 87% | 1012.2 hPa | - | - | - | - |
| 1778058140 | 18.89° C | 90% | 1011.8 hPa | - | - | - | - |
| 1778057540 | 18.33° C | 90% | 1011.9 hPa | - | - | - | - |
| 1778056940 | 18.33° C | 91% | 1011.7 hPa | - | - | - | - |
| 1778055740 | 18.33° C | 91% | 1011.6 hPa | - | - | - | - |
| 1778053340 | 17.78° C | 88% | 1011.4 hPa | - | - | - | - |
| 1778052740 | 18.33° C | 89% | 1011.5 hPa | - | - | - | - |
| 1778052140 | 18.33° C | 89% | 1011.4 hPa | - | - | - | - |
| 1778051540 | 17.78° C | 91% | 1011.4 hPa | - | - | - | - |
| 1778050340 | 17.78° C | 96% | 1011.6 hPa | - | - | - | - |
| 1778049740 | 17.78° C | 95% | 1011.6 hPa | - | - | - | - |
| 1778048540 | 17.78° C | 90% | 1011.5 hPa | - | - | - | - |
| 1778047941 | 17.78° C | 89% | 1011.5 hPa | - | - | - | - |
| 1778046740 | 17.78° C | 10% | - | - | - | - | - |
| 1778044340 | 17.22° C | 10% | - | - | - | - | - |
* Rain since midnight (hover to see other rain measurements)
** Current wind speed in m/s (hover to see current wind gust speed)